Terminal Aerodrome Forecast
Issued by NWS

Home | Current Version | Previous Version | Text Only | Print | Product List | Glossary On
Versions: 1 2 3 4 5 6 7 8 9 10 11 12 13 14 15 16 17 18 19 20
000
FTUS45 KTFX 271100 RRA
TAFHVR
TAF
KHVR 271143Z 2712/2812 09009KT P6SM VCSH SCT050 BKN080
      TEMPO 2712/2715 5SM -FZRASN BR BKN040
     FM271500 21011KT P6SM SCT060 BKN080
     FM271900 24022KT P6SM SCT090 BKN150
     FM280000 23011KT P6SM SCT100 BKN150=

USA.gov is the U.S. government's official web portal to all federal, state and local government web resources and services.